createdAt,value
2023-03-25T00:01:32.941Z,72.32
2023-03-25T00:04:04.614Z,70.72
2023-03-25T00:06:34.753Z,74.27
2023-03-25T00:09:04.931Z,69.17
2023-03-25T00:11:34.616Z,70.20
2023-03-25T00:14:04.892Z,72.55
2023-03-25T00:16:34.429Z,68.20
2023-03-25T00:19:03.753Z,70.60
2023-03-25T00:21:33.562Z,72.97
2023-03-25T00:24:03.121Z,67.00
2023-03-25T00:26:33.186Z,69.87
2023-03-25T00:29:02.434Z,69.10
2023-03-25T00:31:31.759Z,65.50
2023-03-25T00:34:01.023Z,67.75
2023-03-25T00:36:30.691Z,68.95
2023-03-25T00:38:59.984Z,67.70
2023-03-25T00:41:29.454Z,67.87
2023-03-25T00:44:00.745Z,65.95
2023-03-25T00:46:32.497Z,67.13
2023-03-25T00:49:02.228Z,63.33
2023-03-25T00:51:33.849Z,64.27
2023-03-25T00:54:03.341Z,67.30
2023-03-25T00:56:33.342Z,65.10
2023-03-25T00:59:02.876Z,67.60
2023-03-25T01:01:32.915Z,62.80
2023-03-25T01:04:02.324Z,64.67
2023-03-25T01:06:36.705Z,61.75
2023-03-25T01:09:08.218Z,61.90
2023-03-25T01:11:38.609Z,63.92
2023-03-25T01:14:11.533Z,60.73
2023-03-25T01:16:41.844Z,61.83
2023-03-25T01:19:11.484Z,57.80
2023-03-25T01:21:41.536Z,59.15
2023-03-25T01:24:13.197Z,59.42
2023-03-25T01:26:44.758Z,58.30
2023-03-25T01:29:16.183Z,58.43
2023-03-25T01:31:45.714Z,55.70
2023-03-25T01:34:16.122Z,56.13
2023-03-25T01:36:48.882Z,56.35
2023-03-25T01:39:19.796Z,55.08
2023-03-25T01:41:51.512Z,55.83
2023-03-25T01:44:24.202Z,55.43
2023-03-25T01:46:54.600Z,54.03
2023-03-25T01:49:30.453Z,53.85
2023-03-25T01:52:19.311Z,52.43
2023-03-25T01:54:49.462Z,50.58
2023-03-25T01:57:21.632Z,53.68
2023-03-25T01:59:52.748Z,49.23
2023-03-25T02:02:22.568Z,51.02
2023-03-25T02:05:00.726Z,51.50
2023-03-25T02:07:32.909Z,50.70
2023-03-25T02:10:06.640Z,49.40
2023-03-25T02:12:36.186Z,47.85
2023-03-25T02:15:07.739Z,48.58
2023-03-25T02:17:46.706Z,51.13
2023-03-25T02:20:34.757Z,49.23
2023-03-25T02:23:28.457Z,47.10
2023-03-25T02:26:17.559Z,47.98
2023-03-25T02:29:08.106Z,46.95
2023-03-25T02:31:54.886Z,44.30
2023-03-25T02:34:45.848Z,43.83
2023-03-25T02:37:35.416Z,44.40
2023-03-25T02:40:13.545Z,46.83
2023-03-25T02:42:51.767Z,43.42
2023-03-25T02:45:32.751Z,44.35
2023-03-25T02:48:05.500Z,42.20
2023-03-25T02:50:41.483Z,43.45
2023-03-25T02:53:14.437Z,41.28
2023-03-25T02:58:14.349Z,39.40
2023-03-25T03:00:44.335Z,41.73
2023-03-25T03:03:13.842Z,41.50
2023-03-25T03:05:48.130Z,42.08
2023-03-25T03:08:26.474Z,39.27
2023-03-25T03:11:16.345Z,37.83
2023-03-25T03:14:01.103Z,36.88
2023-03-25T03:16:50.201Z,38.30
2023-03-25T03:19:40.898Z,38.45
2023-03-25T03:22:16.974Z,36.60
2023-03-25T03:24:52.963Z,36.93
2023-03-25T03:27:43.706Z,36.83
2023-03-25T03:30:16.674Z,38.53
2023-03-25T03:32:57.820Z,35.83
2023-03-25T03:35:31.678Z,36.42
2023-03-25T03:38:03.733Z,35.68
2023-03-25T03:40:34.941Z,33.18
2023-03-25T03:43:07.380Z,35.30
2023-03-25T03:45:42.676Z,34.58
2023-03-25T03:48:23.960Z,33.53
2023-03-25T03:50:57.998Z,35.08
2023-03-25T03:53:39.118Z,31.45
2023-03-25T03:56:19.561Z,33.85
2023-03-25T03:58:49.775Z,33.58
2023-03-25T04:01:24.076Z,33.65
2023-03-25T04:03:59.171Z,31.60
2023-03-25T04:06:33.335Z,33.33
2023-03-25T04:09:06.532Z,31.30
2023-03-25T04:11:44.451Z,30.92
2023-03-25T04:14:14.888Z,30.23
2023-03-25T04:16:45.920Z,30.32
2023-03-25T04:19:17.008Z,30.57
2023-03-25T04:21:48.903Z,30.32
2023-03-25T04:24:19.776Z,30.25
2023-03-25T04:26:49.998Z,29.82
2023-03-25T04:29:19.372Z,29.87
2023-03-25T04:31:50.105Z,26.80
2023-03-25T04:34:20.719Z,27.02
2023-03-25T04:36:54.858Z,25.97
2023-03-25T04:39:25.755Z,28.15
2023-03-25T04:41:56.595Z,25.35
2023-03-25T04:44:26.129Z,26.30
2023-03-25T04:46:59.237Z,26.27
2023-03-25T04:49:28.520Z,26.10
2023-03-25T04:51:57.983Z,26.57
2023-03-25T04:54:27.349Z,25.05
2023-03-25T04:56:58.552Z,25.80
2023-03-25T04:59:28.212Z,24.20
2023-03-25T05:01:57.674Z,25.50
2023-03-25T05:04:27.130Z,22.67
2023-03-25T05:06:56.911Z,24.02
2023-03-25T05:09:26.828Z,24.18
2023-03-25T05:11:56.409Z,22.48
2023-03-25T05:14:25.699Z,23.30
2023-03-25T05:16:56.648Z,22.98
2023-03-25T05:19:25.936Z,21.85
2023-03-25T05:21:56.334Z,21.10
2023-03-25T05:24:26.331Z,21.33
2023-03-25T05:26:55.641Z,21.73
2023-03-25T05:29:24.963Z,20.05
2023-03-25T05:31:54.349Z,22.35
2023-03-25T05:34:25.674Z,21.20
2023-03-25T05:36:54.992Z,21.52
2023-03-25T05:39:24.431Z,21.23
2023-03-25T05:41:55.373Z,20.45
2023-03-25T05:44:26.278Z,20.52
2023-03-25T05:46:56.545Z,22.00
2023-03-25T05:49:27.231Z,18.50
2023-03-25T05:51:57.064Z,20.40
2023-03-25T05:54:26.553Z,18.95
2023-03-25T05:56:56.158Z,19.02
2023-03-25T05:59:25.931Z,18.07
2023-03-25T06:01:55.221Z,19.50
2023-03-25T06:04:24.912Z,17.65
2023-03-25T06:06:54.188Z,20.70
2023-03-25T06:09:23.648Z,18.73
2023-03-25T06:11:53.711Z,19.37
2023-03-25T06:14:25.111Z,18.32
2023-03-25T06:16:56.016Z,18.95
2023-03-25T06:19:26.534Z,18.05
2023-03-25T06:21:56.061Z,18.60
2023-03-25T06:24:25.374Z,15.98
2023-03-25T06:26:54.653Z,16.32
2023-03-25T06:29:24.206Z,17.87
2023-03-25T06:31:53.506Z,16.95
2023-03-25T06:34:23.751Z,17.23
2023-03-25T06:36:54.189Z,16.50
2023-03-25T06:39:23.513Z,15.28
2023-03-25T06:41:54.095Z,15.28
2023-03-25T06:44:25.401Z,15.23
2023-03-25T06:47:12.564Z,15.48
2023-03-25T06:49:44.096Z,14.95
2023-03-25T06:52:17.456Z,15.78
2023-03-25T06:54:54.105Z,15.18
2023-03-25T06:57:23.556Z,15.98
2023-03-25T07:00:02.790Z,14.55
2023-03-25T07:02:32.869Z,14.03
2023-03-25T07:05:10.410Z,14.30
2023-03-25T07:07:40.492Z,15.05
2023-03-25T07:10:12.963Z,13.95
2023-03-25T07:12:43.401Z,14.28
2023-03-25T07:15:13.399Z,14.53
2023-03-25T07:17:43.357Z,14.43
2023-03-25T07:20:16.879Z,14.98
2023-03-25T07:22:47.354Z,14.28
2023-03-25T07:25:26.735Z,15.45
2023-03-25T07:27:56.331Z,13.10
2023-03-25T07:30:26.057Z,14.80
2023-03-25T07:32:55.366Z,15.03
2023-03-25T07:35:25.106Z,14.98
2023-03-25T07:37:54.399Z,14.75
2023-03-25T07:40:23.968Z,16.05
2023-03-25T07:42:53.282Z,15.72
2023-03-25T07:45:24.321Z,16.40
2023-03-25T07:47:54.389Z,16.70
2023-03-25T07:50:25.296Z,15.45
2023-03-25T07:52:56.133Z,16.83
2023-03-25T07:55:25.858Z,16.67
2023-03-25T07:57:56.393Z,16.95
2023-03-25T08:00:26.068Z,17.48
2023-03-25T08:02:55.636Z,17.52
2023-03-25T08:05:25.404Z,18.25
2023-03-25T08:07:55.535Z,19.90
2023-03-25T08:10:25.441Z,21.65
2023-03-25T08:12:55.186Z,20.55
2023-03-25T08:15:25.044Z,22.98
2023-03-25T08:17:54.506Z,22.55
2023-03-25T08:20:24.382Z,24.18
2023-03-25T08:22:53.763Z,24.00
2023-03-25T08:25:23.424Z,23.12
2023-03-25T08:27:52.852Z,25.12
2023-03-25T08:30:22.991Z,25.90
2023-03-25T08:32:53.964Z,25.15
2023-03-25T08:35:24.750Z,25.70
2023-03-25T08:37:54.056Z,26.23
2023-03-25T08:40:23.411Z,26.87
2023-03-25T08:42:52.873Z,25.68
2023-03-25T08:45:22.195Z,27.80
2023-03-25T08:47:51.650Z,27.25
2023-03-25T08:50:21.397Z,24.67
2023-03-25T08:52:52.401Z,28.30
2023-03-25T08:55:21.758Z,28.92
2023-03-25T08:57:51.278Z,30.65
2023-03-25T09:00:22.741Z,27.25
2023-03-25T09:02:52.115Z,28.12
2023-03-25T09:05:21.988Z,26.23
2023-03-25T09:07:52.781Z,25.77
2023-03-25T09:10:28.341Z,30.40
2023-03-25T09:12:58.945Z,29.07
2023-03-25T09:15:30.279Z,27.07
2023-03-25T09:18:06.263Z,30.10
2023-03-25T09:20:43.570Z,30.82
2023-03-25T09:23:14.709Z,32.15
2023-03-25T09:25:45.288Z,34.60
2023-03-25T09:28:14.643Z,35.70
2023-03-25T09:30:44.276Z,34.33
2023-03-25T09:33:14.161Z,34.25
2023-03-25T09:35:43.897Z,33.20
2023-03-25T09:38:13.764Z,34.18
2023-03-25T09:40:44.210Z,36.23
2023-03-25T09:43:35.266Z,32.70
2023-03-25T09:46:05.338Z,37.45
2023-03-25T09:48:57.376Z,35.92
2023-03-25T09:51:31.724Z,34.92
2023-03-25T09:54:16.528Z,38.90
2023-03-25T09:56:46.297Z,38.85
2023-03-25T09:59:19.040Z,38.80
2023-03-25T10:02:11.142Z,42.23
2023-03-25T10:05:00.654Z,41.60
2023-03-25T10:07:54.290Z,44.77
2023-03-25T10:10:51.520Z,46.77
2023-03-25T10:13:30.472Z,50.20
2023-03-25T10:16:09.306Z,48.38
2023-03-25T10:18:56.789Z,48.60
2023-03-25T10:21:41.875Z,47.15
2023-03-25T10:24:28.995Z,48.00
2023-03-25T10:27:18.191Z,47.90
2023-03-25T10:29:56.767Z,49.40
2023-03-25T10:32:44.920Z,44.73
2023-03-25T10:35:20.371Z,46.80
2023-03-25T10:37:52.792Z,49.15
2023-03-25T10:40:31.332Z,45.83
2023-03-25T10:43:26.294Z,48.30
2023-03-25T10:46:05.216Z,46.92
2023-03-25T10:48:34.984Z,46.33
2023-03-25T10:51:12.567Z,50.40
2023-03-25T10:53:42.552Z,52.88
2023-03-25T10:56:23.769Z,51.68
2023-03-25T10:58:55.970Z,51.33
2023-03-25T11:01:39.431Z,55.35
2023-03-25T11:04:11.461Z,55.48
2023-03-25T11:06:42.695Z,54.95
2023-03-25T11:09:26.807Z,55.40
2023-03-25T11:11:56.103Z,54.35
2023-03-25T11:14:27.891Z,56.98
2023-03-25T11:17:04.234Z,58.98
2023-03-25T11:19:54.707Z,57.73
2023-03-25T11:22:29.604Z,55.65
2023-03-25T11:25:14.422Z,56.30
2023-03-25T11:27:47.207Z,54.33
2023-03-25T11:32:59.417Z,51.90
2023-03-25T11:35:31.450Z,55.50
2023-03-25T11:38:03.086Z,56.75
2023-03-25T11:40:33.899Z,58.02
2023-03-25T11:43:04.449Z,54.30
2023-03-25T11:45:37.758Z,55.48
2023-03-25T11:48:19.132Z,57.33
2023-03-25T11:50:56.796Z,55.17
2023-03-25T11:53:27.985Z,57.13
2023-03-25T11:56:00.437Z,61.60
2023-03-25T11:58:33.288Z,60.33
2023-03-25T12:01:05.950Z,60.52
2023-03-25T12:03:36.414Z,60.67
2023-03-25T12:06:09.157Z,59.85
2023-03-25T12:11:17.651Z,57.00
2023-03-25T12:16:46.056Z,57.73
2023-03-25T12:19:24.454Z,57.95
2023-03-25T12:21:57.119Z,59.95
2023-03-25T12:24:53.670Z,58.87
2023-03-25T12:27:35.315Z,56.70
2023-03-25T12:30:08.329Z,59.70
2023-03-25T12:32:46.620Z,56.63
2023-03-25T12:35:45.288Z,56.23
2023-03-25T12:38:23.608Z,56.20
2023-03-25T12:41:10.078Z,52.90
2023-03-25T12:43:48.050Z,54.45
2023-03-25T12:46:23.961Z,56.00
2023-03-25T12:49:14.537Z,51.75
2023-03-25T12:52:05.487Z,51.55
2023-03-25T12:54:43.543Z,51.55
2023-03-25T12:57:32.857Z,51.00
2023-03-25T13:00:14.976Z,47.40
2023-03-25T13:03:13.155Z,49.55
2023-03-25T13:05:49.056Z,54.20
2023-03-25T13:08:30.844Z,49.93
2023-03-25T13:11:06.442Z,47.90
2023-03-25T13:13:37.200Z,40.90
2023-03-25T13:16:13.203Z,38.70
